createdAt,value
2024-03-06T00:00:19.908Z,1999.90
2024-03-06T00:01:19.988Z,1999.90
2024-03-06T00:02:19.900Z,1999.90
2024-03-06T00:03:19.862Z,1999.90
2024-03-06T00:04:20.391Z,1999.90
2024-03-06T00:05:19.882Z,1999.90
2024-03-06T00:06:19.831Z,1999.90
2024-03-06T00:07:19.819Z,1999.90
2024-03-06T00:08:19.855Z,1999.90
2024-03-06T00:09:19.797Z,1999.90
2024-03-06T00:10:19.789Z,1999.90
2024-03-06T00:11:19.874Z,1999.90
2024-03-06T00:12:19.776Z,1999.90
2024-03-06T00:13:19.768Z,1999.90
2024-03-06T00:14:19.791Z,1999.90
2024-03-06T00:15:19.744Z,1999.90
2024-03-06T00:16:20.278Z,1999.90
2024-03-06T00:17:19.758Z,1999.90
2024-03-06T00:18:19.742Z,1999.90
2024-03-06T00:19:19.688Z,1999.90
2024-03-06T00:20:19.745Z,1999.90
2024-03-06T00:21:19.666Z,1999.90
2024-03-06T00:22:23.367Z,1999.90
2024-03-06T00:23:19.674Z,1999.90
2024-03-06T00:24:19.630Z,1999.90
2024-03-06T00:25:19.620Z,1999.90
2024-03-06T00:26:19.623Z,1999.90
2024-03-06T00:27:19.799Z,1999.90
2024-03-06T00:28:19.594Z,1999.90
2024-03-06T00:29:19.642Z,1999.90
2024-03-06T00:30:19.571Z,1999.90
2024-03-06T00:31:19.553Z,1999.90
2024-03-06T00:32:19.587Z,1999.90
2024-03-06T00:33:19.616Z,1999.90
2024-03-06T00:34:19.529Z,1999.90
2024-03-06T00:35:19.555Z,1999.90
2024-03-06T00:36:19.554Z,1999.90
2024-03-06T00:37:19.489Z,1999.90
2024-03-06T00:38:19.524Z,1999.90
2024-03-06T00:39:19.468Z,1999.90
2024-03-06T00:40:19.456Z,1999.90
2024-03-06T00:41:19.481Z,1999.90
2024-03-06T00:42:19.463Z,1999.90
2024-03-06T00:43:19.423Z,1999.90
2024-03-06T00:44:19.450Z,1999.90
2024-03-06T00:45:19.399Z,1999.90
2024-03-06T00:46:19.404Z,1999.90
2024-03-06T00:47:19.400Z,1999.90
2024-03-06T00:48:19.367Z,1999.90
2024-03-06T00:49:19.359Z,1999.90
2024-03-06T00:50:19.358Z,1999.90
2024-03-06T00:51:22.444Z,1999.90
2024-03-06T00:52:19.355Z,1999.90
2024-03-06T00:53:19.380Z,1999.90
2024-03-06T00:54:19.298Z,1999.90
2024-03-06T00:55:19.286Z,1999.90
2024-03-06T00:56:19.318Z,1999.90
2024-03-06T00:57:19.273Z,1999.90
2024-03-06T00:58:19.259Z,1999.90
2024-03-06T00:59:19.303Z,1999.90
2024-03-06T01:00:19.248Z,1999.90
2024-03-06T01:01:19.316Z,1999.90
2024-03-06T01:02:19.287Z,1999.90
2024-03-06T01:03:19.199Z,1999.90
2024-03-06T01:04:19.190Z,1999.90
2024-03-06T01:05:19.330Z,1999.90
2024-03-06T01:06:19.171Z,1999.90
2024-03-06T01:07:19.153Z,1999.90
2024-03-06T01:08:19.361Z,1999.90
2024-03-06T01:09:19.132Z,1999.90
2024-03-06T01:10:19.122Z,1999.90
2024-03-06T01:11:19.198Z,1999.90
2024-03-06T01:12:19.113Z,1999.90
2024-03-06T01:13:19.084Z,1999.90
2024-03-06T01:14:19.100Z,1999.90
2024-03-06T01:15:19.068Z,1999.90
2024-03-06T01:16:19.056Z,1999.90
2024-03-06T01:17:19.069Z,1999.90
2024-03-06T01:18:19.028Z,1999.90
2024-03-06T01:19:19.016Z,1999.90
2024-03-06T01:20:19.077Z,1999.90
2024-03-06T01:21:19.041Z,1999.90
2024-03-06T01:22:19.008Z,1999.90
2024-03-06T01:23:19.073Z,1999.90
2024-03-06T01:24:19.074Z,1999.90
2024-03-06T01:25:18.951Z,1999.90
2024-03-06T01:26:19.045Z,1999.90
2024-03-06T01:27:18.954Z,1999.90
2024-03-06T01:28:18.969Z,1999.90
2024-03-06T01:29:19.022Z,1999.90
2024-03-06T01:30:18.898Z,1999.90
2024-03-06T01:31:18.940Z,1999.90
2024-03-06T01:32:19.115Z,1999.90
2024-03-06T01:33:19.025Z,1999.90
2024-03-06T01:34:19.054Z,1999.90
2024-03-06T01:35:19.015Z,1999.90
2024-03-06T01:36:18.874Z,1999.90
2024-03-06T01:37:18.993Z,1999.90
2024-03-06T01:38:18.914Z,1999.90
2024-03-06T01:39:18.843Z,1999.90
2024-03-06T01:40:18.842Z,1999.90
2024-03-06T01:41:18.905Z,1999.90
2024-03-06T01:42:18.831Z,1999.90
2024-03-06T01:43:18.816Z,1999.90
2024-03-06T01:44:18.776Z,1999.90
2024-03-06T01:45:18.767Z,1999.90
2024-03-06T01:46:18.715Z,1999.90
2024-03-06T01:47:18.754Z,1999.90
2024-03-06T01:48:18.689Z,1999.90
2024-03-06T01:49:28.094Z,1999.90
2024-03-06T01:50:19.792Z,1999.90
2024-03-06T01:51:18.655Z,1999.90
2024-03-06T01:52:18.669Z,1999.90
2024-03-06T01:53:18.758Z,1999.90
2024-03-06T01:54:18.628Z,1999.90
2024-03-06T01:55:18.617Z,1999.90
2024-03-06T01:56:19.093Z,1999.90
2024-03-06T01:57:18.617Z,1999.90
2024-03-06T01:58:18.597Z,1999.90
2024-03-06T01:59:25.293Z,1999.90
2024-03-06T02:00:19.594Z,1999.90
2024-03-06T02:01:18.674Z,1999.90
2024-03-06T02:02:18.587Z,1999.90
2024-03-06T02:03:18.525Z,1999.90
2024-03-06T02:04:18.516Z,1999.90
2024-03-06T02:05:18.628Z,1999.90
2024-03-06T02:06:18.492Z,1999.90
2024-03-06T02:07:18.482Z,1999.90
2024-03-06T02:08:18.528Z,1999.90
2024-03-06T02:09:18.463Z,1999.90
2024-03-06T02:10:18.451Z,1999.90
2024-03-06T02:11:18.459Z,1999.90
2024-03-06T02:12:18.452Z,1999.90
2024-03-06T02:13:18.414Z,1999.90
2024-03-06T02:14:18.403Z,1999.90
2024-03-06T02:15:18.409Z,1999.90
2024-03-06T02:16:18.383Z,1999.90
2024-03-06T02:17:18.404Z,1999.90
2024-03-06T02:18:18.357Z,1999.90
2024-03-06T02:19:18.388Z,1999.90
2024-03-06T02:20:18.465Z,1999.90
2024-03-06T02:21:18.325Z,1999.90
2024-03-06T02:22:18.320Z,1999.90
2024-03-06T02:23:18.325Z,1999.90
2024-03-06T02:24:18.293Z,1999.90
2024-03-06T02:25:18.320Z,1999.90
2024-03-06T02:26:18.326Z,1999.90
2024-03-06T02:27:18.262Z,1999.90
2024-03-06T02:28:18.282Z,1999.90
2024-03-06T02:29:18.276Z,1999.90
2024-03-06T02:30:18.226Z,1999.90
2024-03-06T02:31:18.216Z,1999.90
2024-03-06T02:32:18.228Z,1999.90
2024-03-06T02:33:18.252Z,1999.90
2024-03-06T02:34:18.214Z,1999.90
2024-03-06T02:35:18.227Z,1999.90
2024-03-06T02:36:18.179Z,1999.90
2024-03-06T02:37:18.144Z,1999.90
2024-03-06T02:38:18.198Z,1999.90
2024-03-06T02:39:18.127Z,1999.90
2024-03-06T02:40:18.114Z,1999.90
2024-03-06T02:41:18.132Z,1999.90
2024-03-06T02:42:18.114Z,1999.90
2024-03-06T02:43:18.114Z,1999.90
2024-03-06T02:44:18.113Z,1999.90
2024-03-06T02:45:18.058Z,1999.90
2024-03-06T02:46:18.049Z,1999.90
2024-03-06T02:47:18.149Z,1999.90
2024-03-06T02:48:18.017Z,1999.90
2024-03-06T02:49:18.013Z,1999.90
2024-03-06T02:50:18.173Z,1999.90
2024-03-06T02:51:17.992Z,1999.90
2024-03-06T02:52:17.989Z,1999.90
2024-03-06T02:53:18.018Z,1999.90
2024-03-06T02:54:17.955Z,1999.90
2024-03-06T02:55:17.955Z,1999.90
2024-03-06T02:56:17.992Z,1999.90
2024-03-06T02:57:17.924Z,1999.90
2024-03-06T02:58:17.913Z,1999.90
2024-03-06T02:59:17.935Z,1999.90
2024-03-06T03:00:17.906Z,1999.90
2024-03-06T03:01:17.906Z,1999.90
2024-03-06T03:02:18.063Z,1999.90
2024-03-06T03:03:17.848Z,1999.90
2024-03-06T03:04:17.842Z,1999.90
2024-03-06T03:05:17.915Z,1999.90
2024-03-06T03:06:17.821Z,1999.90
2024-03-06T03:07:17.821Z,1999.90
2024-03-06T03:08:17.850Z,1999.90
2024-03-06T03:09:17.784Z,1999.90
2024-03-06T03:10:17.774Z,1999.90
2024-03-06T03:11:17.801Z,1999.90
2024-03-06T03:12:17.752Z,1999.90
2024-03-06T03:13:17.746Z,1999.90
2024-03-06T03:14:17.782Z,1999.90
2024-03-06T03:15:17.718Z,1999.90
2024-03-06T03:16:17.745Z,1999.90
2024-03-06T03:17:17.751Z,1999.90
2024-03-06T03:18:17.683Z,1999.90
2024-03-06T03:19:17.673Z,1999.90
2024-03-06T03:20:17.726Z,1999.90
2024-03-06T03:21:17.667Z,1999.90
2024-03-06T03:22:17.664Z,1999.90
2024-03-06T03:23:17.696Z,1999.90
2024-03-06T03:24:17.631Z,1999.90
2024-03-06T03:25:17.611Z,1999.90
2024-03-06T03:26:17.634Z,1999.90
2024-03-06T03:27:17.595Z,1999.90
2024-03-06T03:28:17.578Z,1999.90
2024-03-06T03:29:17.587Z,1999.90
2024-03-06T03:30:17.551Z,1999.90
2024-03-06T03:31:17.544Z,1999.90
2024-03-06T03:32:17.673Z,1999.90
2024-03-06T03:33:17.598Z,1999.90
2024-03-06T03:34:17.518Z,1999.90
2024-03-06T03:35:17.539Z,1999.90
2024-03-06T03:36:17.488Z,1999.90
2024-03-06T03:37:17.467Z,1999.90
2024-03-06T03:38:17.497Z,1999.90
2024-03-06T03:39:17.650Z,1999.90
2024-03-06T03:40:17.453Z,1999.90
2024-03-06T03:41:17.482Z,1999.90
2024-03-06T03:42:17.431Z,1999.90
2024-03-06T03:43:17.406Z,1999.90
2024-03-06T03:44:17.475Z,1999.90
2024-03-06T03:45:17.383Z,1999.90
2024-03-06T03:46:17.376Z,1999.90
2024-03-06T03:47:17.375Z,1999.90
2024-03-06T03:48:17.476Z,1999.90
2024-03-06T03:49:17.334Z,1999.90
2024-03-06T03:50:17.393Z,1999.90
2024-03-06T03:51:17.308Z,1999.90
2024-03-06T03:52:17.323Z,1999.90
2024-03-06T03:53:17.383Z,1999.90
2024-03-06T03:54:17.275Z,1999.90
2024-03-06T03:55:17.282Z,1999.90
2024-03-06T03:56:17.294Z,1999.90
2024-03-06T03:57:17.246Z,1999.90
2024-03-06T03:58:17.232Z,1999.90
2024-03-06T03:59:17.418Z,1999.90
2024-03-06T04:00:17.212Z,1999.90
2024-03-06T04:01:17.279Z,1999.90
2024-03-06T04:02:17.230Z,1999.90
2024-03-06T04:03:17.178Z,1999.90
2024-03-06T04:04:17.198Z,1999.90
2024-03-06T04:05:17.354Z,1999.90
2024-03-06T04:06:17.168Z,1999.90
2024-03-06T04:07:17.132Z,1999.90
2024-03-06T04:08:17.179Z,1999.90
2024-03-06T04:09:17.112Z,1999.90
2024-03-06T04:10:17.112Z,1999.90
2024-03-06T04:11:17.349Z,1999.90
2024-03-06T04:12:17.085Z,1999.90
2024-03-06T04:13:17.140Z,1999.90
2024-03-06T04:14:17.094Z,1999.90
2024-03-06T04:15:17.052Z,1999.90
2024-03-06T04:16:17.025Z,1999.90
2024-03-06T04:17:17.084Z,1999.90
2024-03-06T04:18:17.090Z,1999.90
2024-03-06T04:19:16.988Z,1999.90
2024-03-06T04:20:17.175Z,1999.90
2024-03-06T04:21:17.129Z,1999.90
2024-03-06T04:22:16.959Z,1999.90
2024-03-06T04:23:17.052Z,1999.90
2024-03-06T04:24:16.937Z,1999.90
2024-03-06T04:25:16.925Z,1999.90
2024-03-06T04:26:17.027Z,1999.90
2024-03-06T04:27:16.902Z,1999.90
2024-03-06T04:28:16.893Z,1999.90
2024-03-06T04:29:16.930Z,1999.90
2024-03-06T04:30:16.876Z,1999.90
2024-03-06T04:31:16.859Z,1999.90
2024-03-06T04:32:16.934Z,1999.90
2024-03-06T04:33:16.940Z,1999.90
2024-03-06T04:34:16.839Z,1999.90
2024-03-06T04:35:17.230Z,1999.90
2024-03-06T04:36:16.854Z,1999.90
2024-03-06T04:37:16.810Z,1999.90
2024-03-06T04:38:16.832Z,1999.90
2024-03-06T04:39:16.774Z,1999.90
2024-03-06T04:40:16.758Z,1999.90
2024-03-06T04:41:16.761Z,1999.90
2024-03-06T04:42:16.745Z,1999.90
2024-03-06T04:43:16.723Z,1999.90
2024-03-06T04:44:16.739Z,1999.90
2024-03-06T04:45:16.698Z,1999.90
2024-03-06T04:46:16.690Z,1999.90
2024-03-06T04:47:16.736Z,1999.90
2024-03-06T04:48:16.720Z,1999.90
2024-03-06T04:49:16.663Z,1999.90
2024-03-06T04:50:16.750Z,1999.90
2024-03-06T04:51:16.647Z,1999.90
2024-03-06T04:52:16.650Z,1999.90
2024-03-06T04:53:16.669Z,1999.90
2024-03-06T04:54:16.604Z,1999.90
2024-03-06T04:55:16.593Z,1999.90
2024-03-06T04:56:16.667Z,1999.90
2024-03-06T04:57:16.575Z,1999.90
2024-03-06T04:58:16.556Z,1999.90
2024-03-06T04:59:16.643Z,1999.90
2024-03-06T05:00:16.533Z,1999.90
2024-03-06T05:01:16.579Z,1999.90
2024-03-06T05:02:16.583Z,1999.90
2024-03-06T05:58:17.280Z,1999.90
2024-03-06T05:59:15.326Z,1999.90
2024-03-06T06:00:15.316Z,1999.90
2024-03-06T06:01:15.370Z,1999.90
2024-03-06T06:02:15.292Z,1999.90
2024-03-06T06:03:15.307Z,1999.90
2024-03-06T06:04:15.270Z,1999.90
2024-03-06T06:05:22.994Z,1999.90
2024-03-06T06:06:16.279Z,1999.90
2024-03-06T06:07:15.237Z,1999.90
2024-03-06T06:08:15.259Z,1999.90
2024-03-06T06:09:15.217Z,1999.90
2024-03-06T06:10:17.289Z,1999.90
2024-03-06T06:11:15.262Z,1999.90
2024-03-06T06:12:15.236Z,1999.90
2024-03-06T06:13:15.177Z,1999.90
2024-03-06T06:14:15.228Z,1999.90
2024-03-06T06:15:15.164Z,1999.90
2024-03-06T06:16:15.137Z,1999.90
2024-03-06T06:17:15.157Z,1999.90
2024-03-06T06:18:15.137Z,1999.90
2024-03-06T06:19:15.108Z,1999.90
2024-03-06T06:20:15.152Z,1999.90
2024-03-06T06:21:15.092Z,1999.90
2024-03-06T06:22:15.073Z,1999.90
2024-03-06T06:23:15.086Z,1999.90
2024-03-06T06:24:15.052Z,1999.90
2024-03-06T06:25:15.064Z,1999.90
2024-03-06T06:26:15.083Z,1999.90
2024-03-06T06:27:15.020Z,1999.90
2024-03-06T06:28:15.008Z,1999.90
2024-03-06T06:29:15.075Z,1999.90
2024-03-06T06:30:15.047Z,1999.90
2024-03-06T06:31:14.981Z,1999.90
2024-03-06T06:32:14.994Z,1999.90
2024-03-06T06:33:15.020Z,1999.90
2024-03-06T06:34:14.950Z,1999.90
2024-03-06T06:35:15.297Z,1999.90
2024-03-06T06:36:14.933Z,1999.90
2024-03-06T06:37:14.913Z,1999.90
2024-03-06T06:38:14.964Z,1999.90
2024-03-06T06:39:14.894Z,1999.90
2024-03-06T06:40:14.886Z,1999.90
2024-03-06T06:41:14.906Z,1999.90
2024-03-06T06:42:14.858Z,1999.90
2024-03-06T06:43:14.845Z,1999.90
2024-03-06T06:44:14.889Z,1999.90
2024-03-06T06:45:14.837Z,1999.90
2024-03-06T06:46:14.860Z,1999.90
2024-03-06T06:47:14.881Z,1999.90
2024-03-06T06:48:14.805Z,1999.90
2024-03-06T06:49:14.779Z,1999.90
2024-03-06T06:50:14.874Z,1999.90
2024-03-06T06:51:14.788Z,1999.90
2024-03-06T06:52:14.796Z,1999.90
2024-03-06T06:53:14.769Z,1999.90
2024-03-06T06:54:14.722Z,1999.90
2024-03-06T06:55:14.726Z,1999.90
2024-03-06T06:56:14.743Z,1999.90
2024-03-06T06:57:14.694Z,1999.90
2024-03-06T06:58:14.680Z,1999.90
2024-03-06T06:59:14.810Z,1999.90
2024-03-06T07:00:14.711Z,1999.90
2024-03-06T07:01:14.728Z,1999.90
2024-03-06T07:02:14.725Z,1999.90
2024-03-06T07:03:14.624Z,1999.90
2024-03-06T07:04:14.616Z,1999.90
2024-03-06T07:05:14.772Z,1999.90
2024-03-06T07:06:14.592Z,1999.90
2024-03-06T07:07:14.588Z,1999.90
2024-03-06T07:08:14.590Z,1999.90
2024-03-06T07:09:14.555Z,1999.90
2024-03-06T07:10:14.544Z,1999.90
2024-03-06T07:11:14.633Z,1999.90
2024-03-06T07:12:14.535Z,1999.90
2024-03-06T07:13:14.721Z,1999.90
2024-03-06T07:14:14.997Z,1999.90
2024-03-06T07:15:14.497Z,1999.90
2024-03-06T07:16:14.479Z,1999.90
2024-03-06T07:17:14.507Z,1999.90
2024-03-06T07:18:14.582Z,1999.90
2024-03-06T07:19:14.456Z,1999.90
2024-03-06T07:20:14.468Z,1999.90
2024-03-06T07:21:14.424Z,1999.90
2024-03-06T07:22:14.417Z,1999.90
2024-03-06T07:23:14.422Z,1999.90
2024-03-06T07:24:14.395Z,1999.90
2024-03-06T07:25:14.382Z,1999.90
2024-03-06T07:26:14.423Z,1999.90
2024-03-06T07:27:14.365Z,1999.90
2024-03-06T07:28:14.361Z,1999.90
2024-03-06T07:29:14.388Z,1999.90
2024-03-06T07:30:15.062Z,1999.90
2024-03-06T07:31:14.340Z,1999.90
2024-03-06T07:32:14.348Z,1999.90
2024-03-06T07:33:14.339Z,1999.90
2024-03-06T07:34:14.345Z,1999.90
2024-03-06T07:35:14.302Z,1999.90
2024-03-06T07:36:14.378Z,1999.90
2024-03-06T07:37:14.337Z,1999.90
2024-03-06T07:38:14.281Z,1999.90
2024-03-06T07:39:14.234Z,1999.90
2024-03-06T07:40:14.230Z,1999.90
2024-03-06T07:41:14.255Z,1999.90
2024-03-06T07:42:14.207Z,1999.90
2024-03-06T07:43:14.203Z,1999.90
2024-03-06T07:44:14.212Z,1999.90
2024-03-06T07:45:14.172Z,1999.90
2024-03-06T07:46:14.162Z,1999.90
2024-03-06T07:47:14.181Z,1999.90
2024-03-06T07:48:14.152Z,1999.90
2024-03-06T07:49:14.135Z,1999.90
2024-03-06T07:50:14.213Z,1999.90
2024-03-06T07:51:14.108Z,1999.90
2024-03-06T07:52:14.111Z,1999.90
2024-03-06T07:53:14.111Z,1999.90
2024-03-06T07:54:14.111Z,1999.90
2024-03-06T07:55:14.067Z,1999.90
2024-03-06T07:56:14.138Z,1999.90
2024-03-06T07:57:14.043Z,1999.90
2024-03-06T07:58:14.029Z,1999.90
2024-03-06T07:59:14.208Z,1999.90
2024-03-06T08:00:14.040Z,1999.90
2024-03-06T08:01:14.396Z,1999.90
2024-03-06T08:02:14.043Z,1999.90
2024-03-06T08:03:13.976Z,1999.90
2024-03-06T08:04:13.983Z,1999.90
2024-03-06T08:05:13.992Z,1999.90
2024-03-06T08:06:14.023Z,1999.90
2024-03-06T08:07:13.929Z,1999.90
2024-03-06T08:08:13.974Z,1999.90
2024-03-06T08:09:13.919Z,1999.90
2024-03-06T08:10:13.895Z,1999.90
2024-03-06T08:11:13.971Z,1999.90
2024-03-06T08:12:13.883Z,1999.90
2024-03-06T08:13:13.865Z,1999.90
2024-03-06T08:14:13.900Z,1999.90
2024-03-06T08:15:13.911Z,1999.90
2024-03-06T08:16:13.835Z,1999.90
2024-03-06T08:17:13.869Z,1999.90
2024-03-06T08:18:13.967Z,1999.90
2024-03-06T08:19:13.792Z,1999.90
2024-03-06T08:20:13.926Z,1999.90
2024-03-06T08:21:13.773Z,1999.90
2024-03-06T08:22:13.814Z,1999.90
2024-03-06T08:23:13.806Z,1999.90
2024-03-06T08:24:13.760Z,1999.90
2024-03-06T08:25:13.743Z,1999.90
2024-03-06T08:26:13.727Z,1999.90
2024-03-06T08:27:13.704Z,1999.90
2024-03-06T08:28:13.699Z,1999.90
2024-03-06T08:29:13.714Z,1999.90
2024-03-06T08:30:13.681Z,1999.90
2024-03-06T08:31:13.662Z,1999.90
2024-03-06T08:32:13.685Z,1999.90
2024-03-06T08:33:13.806Z,1999.90
2024-03-06T08:34:13.719Z,1999.90
2024-03-06T08:35:15.179Z,1999.90
2024-03-06T08:36:13.697Z,1999.90
2024-03-06T08:37:13.598Z,1999.90
2024-03-06T08:38:13.669Z,1999.90
2024-03-06T08:39:13.585Z,1999.90
2024-03-06T08:40:13.563Z,1999.90
2024-03-06T08:41:13.600Z,1999.90
2024-03-06T08:42:13.558Z,1999.90
2024-03-06T08:43:13.532Z,1999.90
2024-03-06T08:44:13.550Z,1999.90
2024-03-06T08:45:13.513Z,1999.90
2024-03-06T08:46:13.525Z,1999.90
2024-03-06T08:47:13.528Z,1999.90
2024-03-06T08:48:13.532Z,1999.90
2024-03-06T08:49:13.467Z,1999.90
2024-03-06T08:50:13.504Z,1999.90
2024-03-06T08:51:13.446Z,1999.90
2024-03-06T08:52:13.457Z,1999.90
2024-03-06T08:53:13.446Z,1999.90
2024-03-06T08:54:14.762Z,1999.90
2024-03-06T08:55:13.419Z,1999.90
2024-03-06T08:56:13.498Z,1999.90
2024-03-06T08:57:13.380Z,1999.90
2024-03-06T08:58:13.364Z,1999.90
2024-03-06T08:59:13.388Z,1999.90
2024-03-06T09:00:13.347Z,1999.90
2024-03-06T09:01:13.354Z,1999.90
2024-03-06T09:02:13.328Z,1999.90
2024-03-06T09:03:13.312Z,1999.90
2024-03-06T09:04:13.299Z,1999.90
2024-03-06T09:05:13.416Z,1999.90
2024-03-06T09:06:13.285Z,1999.90
2024-03-06T09:07:13.297Z,1999.90
2024-03-06T09:08:13.279Z,1999.90
2024-03-06T09:09:13.242Z,1999.90
2024-03-06T09:10:13.286Z,1999.90
2024-03-06T09:11:13.276Z,1999.90
2024-03-06T09:12:13.212Z,1999.90
2024-03-06T09:13:13.221Z,1999.90
2024-03-06T09:14:13.210Z,1999.90
2024-03-06T09:15:13.529Z,1999.90
2024-03-06T09:16:13.187Z,1999.90
2024-03-06T09:17:13.195Z,1999.90
2024-03-06T09:18:13.255Z,1999.90
2024-03-06T09:19:15.269Z,1999.90
2024-03-06T09:20:14.184Z,1999.90
2024-03-06T09:21:13.117Z,1999.90
2024-03-06T09:22:13.105Z,1999.90
2024-03-06T09:23:13.111Z,1999.90
2024-03-06T09:24:13.080Z,1999.90
2024-03-06T09:25:13.070Z,1999.90
2024-03-06T09:26:13.167Z,1999.90
2024-03-06T09:27:13.052Z,1999.90
2024-03-06T09:28:13.037Z,1999.90
2024-03-06T09:29:13.054Z,1999.90
2024-03-06T09:30:13.015Z,1999.90
2024-03-06T09:31:13.002Z,1999.90
2024-03-06T09:32:13.004Z,1999.90
2024-03-06T09:33:13.129Z,1999.90
2024-03-06T09:34:12.970Z,1999.90
2024-03-06T09:35:12.987Z,1999.90
2024-03-06T09:36:12.948Z,1999.90
2024-03-06T09:37:12.969Z,1999.90
2024-03-06T09:38:12.959Z,1999.90
2024-03-06T09:39:12.912Z,1999.90
2024-03-06T09:40:12.913Z,1999.90
2024-03-06T09:41:12.910Z,1999.90
2024-03-06T09:42:12.936Z,1999.90
2024-03-06T09:43:12.876Z,1999.90
2024-03-06T09:44:12.998Z,1999.90
2024-03-06T09:45:12.851Z,1999.90
2024-03-06T09:46:12.837Z,1999.90
2024-03-06T09:47:12.884Z,1999.90
2024-03-06T09:48:12.926Z,1999.90
2024-03-06T09:49:12.807Z,1999.90
2024-03-06T09:50:12.807Z,1999.90
2024-03-06T09:51:12.779Z,1999.90
2024-03-06T09:52:12.777Z,1999.90
2024-03-06T09:53:12.789Z,463.80
2024-03-06T09:54:12.749Z,1999.90
2024-03-06T09:55:12.740Z,1999.90
2024-03-06T09:56:12.777Z,1999.90
2024-03-06T09:57:12.714Z,1999.90
2024-03-06T09:58:12.752Z,1247.70
2024-03-06T09:59:12.728Z,1802.90
2024-03-06T10:00:12.680Z,1881.40
2024-03-06T10:01:12.692Z,1075.30
2024-03-06T10:02:12.730Z,1687.00
2024-03-06T10:03:12.646Z,1999.90
2024-03-06T10:04:12.649Z,586.80
2024-03-06T10:05:12.761Z,1139.00
2024-03-06T10:06:13.481Z,826.50
2024-03-06T10:07:12.602Z,1604.00
2024-03-06T10:08:12.610Z,1999.90
2024-03-06T10:09:12.596Z,1964.80
2024-03-06T10:10:12.574Z,1999.90
2024-03-06T10:11:12.665Z,1950.60
2024-03-06T10:12:12.619Z,1997.90
2024-03-06T10:13:12.541Z,1686.40
2024-03-06T10:14:12.576Z,1650.80
2024-03-06T10:15:12.614Z,1891.00
2024-03-06T10:16:12.621Z,1099.30
2024-03-06T10:17:12.518Z,1524.20
2024-03-06T10:18:12.637Z,1599.80
2024-03-06T10:19:12.471Z,1756.40
2024-03-06T10:20:12.491Z,1453.40
2024-03-06T10:21:12.655Z,1379.80
2024-03-06T10:22:12.461Z,1669.00
2024-03-06T10:23:12.458Z,1657.90
2024-03-06T10:24:12.420Z,1527.10
2024-03-06T10:25:12.403Z,1743.10
2024-03-06T10:26:12.432Z,1999.90
2024-03-06T10:27:12.380Z,1748.10
2024-03-06T10:28:12.419Z,1260.80
2024-03-06T10:29:12.395Z,1005.20
2024-03-06T10:30:12.536Z,1137.60
2024-03-06T10:31:12.335Z,1046.00
2024-03-06T10:32:12.390Z,1122.50
2024-03-06T10:33:12.407Z,1161.40
2024-03-06T10:34:12.314Z,1307.00
2024-03-06T10:35:12.319Z,1097.70
2024-03-06T10:36:12.289Z,999.40
2024-03-06T10:37:12.272Z,1251.10
2024-03-06T10:38:12.464Z,1050.60
2024-03-06T10:39:12.252Z,1398.60
2024-03-06T10:40:12.243Z,1430.40
2024-03-06T10:41:12.274Z,1518.80
2024-03-06T10:42:12.232Z,1106.30
2024-03-06T10:43:12.212Z,1595.00
2024-03-06T10:44:12.211Z,1152.80
2024-03-06T10:45:12.189Z,880.00
2024-03-06T10:46:12.261Z,1044.20
2024-03-06T10:47:12.179Z,1016.30
2024-03-06T10:48:12.254Z,1281.10
2024-03-06T10:49:12.146Z,999.30
2024-03-06T10:50:12.176Z,1699.80
2024-03-06T10:51:12.124Z,1483.40
2024-03-06T10:52:12.116Z,1355.30
2024-03-06T10:53:12.124Z,1085.70
2024-03-06T10:54:12.089Z,1455.80
2024-03-06T10:55:12.089Z,1312.60
2024-03-06T10:56:12.096Z,1353.40
2024-03-06T10:57:12.060Z,1302.60
2024-03-06T10:58:12.056Z,1265.40
2024-03-06T10:59:12.086Z,1392.50
2024-03-06T11:00:12.026Z,1401.60
2024-03-06T11:01:12.079Z,1267.20
2024-03-06T11:02:12.074Z,1572.60
2024-03-06T11:03:11.989Z,1920.20
2024-03-06T11:04:11.981Z,1966.90
2024-03-06T11:05:12.020Z,1921.20
2024-03-06T11:06:11.960Z,1119.10
2024-03-06T11:07:14.727Z,1048.80
2024-03-06T11:08:11.962Z,1101.00
2024-03-06T11:09:11.939Z,1268.30
2024-03-06T11:10:11.916Z,1222.80
2024-03-06T11:11:11.975Z,1157.60
2024-03-06T11:12:11.908Z,1227.00
2024-03-06T11:13:11.887Z,1137.20
2024-03-06T11:14:11.886Z,1500.60
2024-03-06T11:15:11.865Z,1480.30
2024-03-06T11:16:11.847Z,1164.60
2024-03-06T11:17:12.147Z,1066.00
2024-03-06T11:18:11.957Z,1243.60
2024-03-06T11:19:11.832Z,1102.20
2024-03-06T11:20:11.878Z,1347.00
2024-03-06T11:21:11.805Z,1773.20
2024-03-06T11:22:11.780Z,1515.70
2024-03-06T11:23:11.867Z,1633.80
2024-03-06T11:24:11.765Z,1444.10
2024-03-06T11:25:11.756Z,1564.70
2024-03-06T11:26:11.795Z,1333.80
2024-03-06T11:27:11.737Z,1718.30
2024-03-06T11:28:11.721Z,1143.20
2024-03-06T11:29:11.751Z,946.00
2024-03-06T11:30:11.695Z,1000.90
2024-03-06T11:31:11.685Z,727.00
2024-03-06T11:32:11.882Z,876.70
2024-03-06T11:33:11.832Z,935.30
2024-03-06T11:34:11.976Z,568.90
2024-03-06T11:35:11.688Z,301.80
2024-03-06T11:36:11.634Z,464.40
2024-03-06T11:37:11.613Z,377.70
2024-03-06T11:38:11.649Z,275.40
2024-03-06T11:39:11.611Z,274.70
2024-03-06T11:40:11.613Z,600.30
2024-03-06T11:41:11.591Z,233.90
2024-03-06T11:42:11.585Z,44.00
2024-03-06T11:43:11.577Z,98.40
2024-03-06T11:44:11.571Z,103.30
2024-03-06T11:45:11.527Z,123.30
2024-03-06T11:46:11.515Z,46.30
2024-03-06T11:47:11.617Z,77.90
2024-03-06T11:48:11.555Z,112.20
2024-03-06T11:49:11.487Z,281.30
2024-03-06T11:50:11.571Z,142.40
2024-03-06T11:51:11.472Z,152.90
2024-03-06T11:52:11.621Z,133.50
2024-03-06T11:53:11.778Z,176.20
2024-03-06T11:54:11.437Z,186.10
2024-03-06T11:55:11.425Z,38.00
2024-03-06T11:56:11.445Z,26.10
2024-03-06T11:57:11.408Z,22.30
2024-03-06T11:58:11.393Z,28.10
2024-03-06T11:59:11.528Z,50.20
2024-03-06T12:00:11.371Z,25.80
2024-03-06T12:01:11.420Z,56.10
2024-03-06T12:02:11.565Z,22.50
2024-03-06T12:03:11.329Z,20.30
2024-03-06T12:04:11.334Z,21.70
2024-03-06T12:05:11.376Z,33.10
2024-03-06T12:06:11.374Z,16.20
2024-03-06T12:07:11.383Z,16.30
2024-03-06T12:08:11.308Z,19.60
2024-03-06T12:09:11.264Z,22.70
2024-03-06T12:10:11.262Z,20.20
2024-03-06T12:11:11.340Z,23.60
2024-03-06T12:12:11.877Z,18.70
2024-03-06T12:13:11.220Z,16.40
2024-03-06T12:14:11.331Z,18.50
2024-03-06T12:15:11.203Z,18.10
2024-03-06T12:16:11.194Z,21.80
2024-03-06T12:17:11.216Z,22.60
2024-03-06T12:18:11.283Z,53.10
2024-03-06T12:19:11.168Z,34.10
2024-03-06T12:20:11.216Z,76.90
2024-03-06T12:21:11.133Z,173.00
2024-03-06T12:22:11.249Z,88.90
2024-03-06T12:23:11.209Z,95.50
2024-03-06T12:24:11.125Z,504.80
2024-03-06T12:25:11.106Z,197.50
2024-03-06T12:26:11.133Z,129.50
2024-03-06T12:27:11.085Z,237.10
2024-03-06T12:28:11.060Z,461.50
2024-03-06T12:29:11.297Z,384.70
2024-03-06T12:30:11.039Z,655.70
2024-03-06T12:31:11.028Z,577.10
2024-03-06T12:32:11.080Z,141.20
2024-03-06T12:33:11.130Z,462.50
2024-03-06T12:34:11.065Z,432.30
2024-03-06T12:35:11.004Z,386.00
2024-03-06T12:36:10.995Z,346.10
2024-03-06T12:37:10.963Z,552.50
2024-03-06T12:38:11.044Z,407.80
2024-03-06T12:39:10.942Z,754.90
2024-03-06T12:40:10.936Z,647.10
2024-03-06T12:41:11.035Z,545.50
2024-03-06T12:42:10.971Z,724.90
2024-03-06T12:43:10.893Z,732.00
2024-03-06T12:44:10.918Z,636.60
2024-03-06T12:45:10.872Z,678.70
2024-03-06T12:46:10.863Z,524.00
2024-03-06T12:47:10.951Z,439.70
2024-03-06T12:48:10.924Z,609.20
2024-03-06T12:49:10.869Z,607.50
2024-03-06T12:50:10.914Z,557.80
2024-03-06T12:51:10.810Z,770.60
2024-03-06T12:52:10.798Z,435.80
2024-03-06T12:53:10.824Z,581.90
2024-03-06T12:54:10.823Z,879.10
2024-03-06T12:55:10.774Z,604.00
2024-03-06T12:56:10.762Z,705.30
2024-03-06T12:57:13.628Z,942.40
2024-03-06T12:58:10.730Z,691.60
2024-03-06T12:59:10.808Z,769.50
2024-03-06T13:00:10.705Z,988.70
2024-03-06T13:01:10.734Z,795.60
2024-03-06T13:02:10.716Z,946.00
2024-03-06T13:03:10.683Z,998.60
2024-03-06T13:04:12.864Z,1127.70